Time;durP1;ratioP1;P1;durP2;ratioP2;P2;SDS_P1;SDS_P2;PMS_P1;PMS_P2;Temp;Humidity;BMP_temperature;BMP_pressure;BME280_temperature;BME280_humidity;BME280_pressure;Samples;Min_cycle;Max_cycle;Signal;HPM_P1;HPM_P2
2023/03/12 00:02:59;;;;;;;18.20;8.45;;;;;;;-1.74;100.00;100045.59;20772721;28;20050;-68
2023/03/12 00:13:01;;;;;;;18.23;7.88;;;;;;;-1.75;100.00;100052.44;20778123;28;20115;-69
2023/03/12 00:23:02;;;;;;;18.80;8.75;;;;;;;-1.77;100.00;100046.41;20778785;28;20060;-68
2023/03/12 00:33:03;;;;;;;16.55;9.70;;;;;;;-1.84;100.00;100047.03;20769901;28;20112;-68
2023/03/12 00:43:05;;;;;;;22.17;11.65;;;;;;;-1.87;100.00;100044.38;20768885;28;20054;-68
2023/03/12 00:53:06;;;;;;;17.60;8.30;;;;;;;-1.81;100.00;100045.44;20772974;28;20064;-68
2023/03/12 01:03:07;;;;;;;16.83;7.28;;;;;;;-1.72;100.00;100049.94;20773964;28;20096;-68
2023/03/12 01:13:08;;;;;;;16.00;8.05;;;;;;;-1.71;100.00;100058.53;20772571;28;20605;-68
2023/03/12 01:23:10;;;;;;;16.73;7.57;;;;;;;-1.70;100.00;100047.41;20763770;28;20057;-68
2023/03/12 01:33:11;;;;;;;14.77;7.18;;;;;;;-1.69;100.00;100051.72;20768036;28;20084;-68
2023/03/12 01:43:12;;;;;;;15.88;6.97;;;;;;;-1.80;100.00;100048.88;20768608;28;20057;-68
2023/03/12 01:53:13;;;;;;;18.52;7.38;;;;;;;-1.78;100.00;100038.63;20808886;23;20053;-68
2023/03/12 02:03:14;;;;;;;19.15;9.73;;;;;;;-1.78;100.00;100018.97;20766876;28;20096;-68
2023/03/12 02:13:16;;;;;;;19.35;9.77;;;;;;;-1.74;100.00;100019.94;20765310;28;20057;-68
2023/03/12 02:23:17;;;;;;;21.60;9.70;;;;;;;-1.65;100.00;100015.06;20768246;28;20056;-67
2023/03/12 02:33:18;;;;;;;14.50;8.10;;;;;;;-1.48;100.00;100003.53;20772265;28;20072;-68
2023/03/12 02:43:19;;;;;;;17.27;8.35;;;;;;;-1.32;100.00;99999.66;20771863;28;20115;-68
2023/03/12 02:53:21;;;;;;;17.45;8.60;;;;;;;-1.04;100.00;100011.50;20760650;28;20057;-68
2023/03/12 03:03:22;;;;;;;16.98;9.65;;;;;;;-0.81;100.00;100000.06;20762204;28;20562;-67
2023/03/12 03:13:23;;;;;;;17.75;8.70;;;;;;;-0.67;100.00;99986.66;20767830;28;20725;-68
2023/03/12 03:23:25;;;;;;;17.10;9.13;;;;;;;-0.55;100.00;99984.38;20769399;28;20455;-68
2023/03/12 03:33:26;;;;;;;17.13;8.85;;;;;;;-0.43;100.00;99979.50;20755535;28;20120;-68
2023/03/12 03:43:27;;;;;;;21.00;10.10;;;;;;;-0.33;100.00;99972.84;20762687;28;20136;-68
2023/03/12 03:53:28;;;;;;;21.73;11.77;;;;;;;-0.52;100.00;99957.03;20764713;28;20495;-67
2023/03/12 04:03:30;;;;;;;20.13;10.40;;;;;;;-0.36;100.00;99988.22;20771075;28;20092;-68
2023/03/12 04:13:31;;;;;;;21.35;12.52;;;;;;;-0.35;100.00;99998.53;20781278;28;20050;-68
2023/03/12 04:23:32;;;;;;;22.42;10.02;;;;;;;-0.38;100.00;100003.63;20773654;28;20111;-68
2023/03/12 04:33:33;;;;;;;21.90;10.18;;;;;;;-0.30;100.00;100014.91;20774123;28;20060;-68
2023/03/12 04:43:35;;;;;;;19.58;9.30;;;;;;;-0.28;100.00;100010.69;20775357;28;20084;-68
2023/03/12 04:53:36;;;;;;;14.27;8.35;;;;;;;-0.26;100.00;99991.00;20778867;28;20088;-68
2023/03/12 05:03:37;;;;;;;18.92;11.63;;;;;;;-0.15;100.00;99987.78;20772012;28;20479;-68
2023/03/12 05:13:39;;;;;;;17.88;10.23;;;;;;;0.02;100.00;99983.84;20767987;28;20054;-68
2023/03/12 05:23:41;;;;;;;20.05;10.15;;;;;;;0.12;100.00;99967.75;20775517;28;20145;-68
2023/03/12 05:33:43;;;;;;;17.50;9.13;;;;;;;0.30;100.00;99964.66;20775123;28;20080;-68
2023/03/12 05:43:44;;;;;;;30.35;14.68;;;;;;;0.33;100.00;99940.66;20774969;28;20111;-68
2023/03/12 05:53:45;;;;;;;65.20;25.20;;;;;;;0.47;100.00;99946.94;20764749;28;20049;-70
2023/03/12 06:03:46;;;;;;;21.80;11.88;;;;;;;0.37;100.00;99939.88;20769247;28;20127;-70
2023/03/12 06:13:48;;;;;;;16.65;8.95;;;;;;;0.54;100.00;99951.38;20770716;28;20057;-69
2023/03/12 06:23:49;;;;;;;20.70;8.80;;;;;;;0.60;100.00;99961.75;20772128;28;20115;-69
2023/03/12 06:33:52;;;;;;;17.65;9.48;;;;;;;0.73;100.00;99958.56;20765232;28;20053;-68
2023/03/12 06:43:53;;;;;;;20.95;9.73;;;;;;;0.67;100.00;99963.63;20765029;28;21415;-68
2023/03/12 06:53:55;;;;;;;21.13;11.10;;;;;;;0.76;100.00;99963.75;20767785;28;20069;-68
2023/03/12 07:03:56;;;;;;;19.20;9.95;;;;;;;0.61;100.00;99968.63;20769864;28;20046;-68
2023/03/12 07:13:57;;;;;;;21.08;10.50;;;;;;;0.85;100.00;99987.94;20768822;28;20120;-68
2023/03/12 07:23:59;;;;;;;16.80;10.57;;;;;;;0.71;100.00;100005.75;20759682;28;20686;-72
2023/03/12 07:34:01;;;;;;;17.50;10.73;;;;;;;0.71;100.00;99995.44;20760678;28;20073;-72
2023/03/12 07:44:03;;;;;;;22.90;11.63;;;;;;;0.90;100.00;99991.47;20780212;28;20050;-73
2023/03/12 07:54:04;;;;;;;25.35;13.80;;;;;;;0.85;100.00;99987.94;20833195;23;20053;-75
2023/03/12 08:04:05;;;;;;;24.80;12.90;;;;;;;0.87;100.00;99991.44;20755749;28;20395;-73
2023/03/12 08:14:07;;;;;;;29.75;14.30;;;;;;;1.30;100.00;99997.28;20758111;28;20104;-73
2023/03/12 08:24:08;;;;;;;27.40;15.35;;;;;;;1.55;100.00;100009.69;20770791;28;20104;-73
2023/03/12 08:34:09;;;;;;;25.88;14.68;;;;;;;1.87;100.00;99999.81;20776597;28;20084;-74
2023/03/12 08:44:11;;;;;;;27.27;15.85;;;;;;;2.09;100.00;100006.06;20770823;28;20485;-75
2023/03/12 08:54:12;;;;;;;25.52;15.57;;;;;;;2.21;100.00;100010.53;20722089;28;1052334;-75
2023/03/12 09:04:13;;;;;;;23.48;14.02;;;;;;;2.61;100.00;100003.22;20789220;28;20045;-75
2023/03/12 09:14:15;;;;;;;21.05;13.32;;;;;;;3.02;100.00;100001.03;20779432;28;20455;-75
2023/03/12 09:24:36;;;;;;;22.83;12.98;;;;;;;3.33;100.00;100010.72;20779858;28;20963;-74
2023/03/12 09:34:37;;;;;;;25.05;14.40;;;;;;;3.52;100.00;100010.88;20767412;28;20092;-72
2023/03/12 09:44:38;;;;;;;23.70;14.07;;;;;;;3.64;100.00;100010.06;20765103;28;20069;-71
2023/03/12 09:54:40;;;;;;;21.45;14.50;;;;;;;4.09;100.00;100014.63;20760790;28;20060;-70
2023/03/12 10:04:41;;;;;;;26.42;16.08;;;;;;;4.53;100.00;100019.09;20769716;28;20054;-70
2023/03/12 10:14:59;;;;;;;28.02;17.25;;;;;;;4.64;100.00;100032.94;20769296;28;20054;-69
2023/03/12 10:25:01;;;;;;;23.75;15.75;;;;;;;5.55;100.00;100032.13;20761727;28;20053;-68
2023/03/12 10:35:02;;;;;;;20.75;13.85;;;;;;;6.09;100.00;100019.91;20762385;28;20081;-69
2023/03/12 10:45:03;;;;;;;24.42;13.80;;;;;;;6.42;100.00;100020.66;20766922;28;20050;-68
2023/03/12 10:55:04;;;;;;;18.80;12.48;;;;;;;7.15;100.00;100001.09;20770913;28;20056;-69
2023/03/12 11:05:06;;;;;;;18.02;11.32;;;;;;;7.51;100.00;99996.41;20761375;28;20042;-68
2023/03/12 11:15:07;;;;;;;21.33;11.57;;;;;;;7.59;100.00;99995.47;20764917;28;20057;-70
2023/03/12 11:25:08;;;;;;;18.33;10.60;;;;;;;8.24;100.00;99998.22;20762711;28;20053;-69
2023/03/12 11:35:10;;;;;;;18.63;10.35;;;;;;;8.61;100.00;100000.34;20763992;28;20049;-69
2023/03/12 11:45:13;;;;;;;18.23;9.38;;;;;;;8.96;100.00;99987.66;20761778;28;20054;-70
2023/03/12 11:55:14;;;;;;;17.08;10.18;;;;;;;9.11;100.00;99983.06;20758955;28;20088;-70
2023/03/12 12:05:16;;;;;;;21.23;10.07;;;;;;;9.62;100.00;99980.41;20760745;28;20524;-70
2023/03/12 12:15:18;;;;;;;15.32;6.40;;;;;;;10.38;100.00;99952.72;20758848;28;20053;-70
2023/03/12 12:25:19;;;;;;;16.35;6.30;;;;;;;10.50;100.00;99955.09;20769389;28;20049;-70
2023/03/12 12:35:20;;;;;;;13.55;5.25;;;;;;;10.65;100.00;99950.41;20773991;28;20140;-70
2023/03/12 12:45:21;;;;;;;13.15;4.88;;;;;;;10.95;100.00;99951.41;20770916;28;20080;-69
2023/03/12 12:55:23;;;;;;;12.25;3.47;;;;;;;11.32;100.00;99925.16;20775096;28;20057;-69
2023/03/12 13:05:24;;;;;;;15.98;4.00;;;;;;;11.63;100.00;99937.44;20775939;28;20114;-69
2023/03/12 13:15:25;;;;;;;18.75;3.20;;;;;;;11.61;100.00;99923.50;20773719;28;20108;-69
2023/03/12 13:25:27;;;;;;;13.25;3.25;;;;;;;11.61;100.00;99902.53;20758967;28;20562;-69
2023/03/12 13:35:28;;;;;;;15.63;3.20;;;;;;;11.94;100.00;99896.34;20768454;28;20049;-71
2023/03/12 13:45:30;;;;;;;11.63;2.80;;;;;;;11.84;100.00;99887.03;20771031;28;20108;-70
2023/03/12 13:55:32;;;;;;;14.18;3.05;;;;;;;12.29;100.00;99889.19;20821481;23;20073;-75
2023/03/12 14:05:33;;;;;;;10.55;2.40;;;;;;;12.48;100.00;99892.94;20772569;28;20524;-73
2023/03/12 14:15:34;;;;;;;15.75;3.42;;;;;;;12.54;100.00;99892.75;20767854;28;20454;-72
2023/03/12 14:25:36;;;;;;;19.55;4.30;;;;;;;12.39;100.00;99893.22;20768334;28;20056;-75
2023/03/12 14:35:37;;;;;;;14.75;3.42;;;;;;;12.41;100.00;99896.69;20774029;28;20068;-75
2023/03/12 14:45:39;;;;;;;24.02;5.05;;;;;;;12.39;100.00;99898.47;20766432;28;20061;-75
2023/03/12 14:55:40;;;;;;;22.58;4.30;;;;;;;12.44;100.00;99899.19;20763604;28;20453;-75
2023/03/12 15:05:41;;;;;;;16.33;4.43;;;;;;;12.30;100.00;99888.25;20764420;28;20076;-72
2023/03/12 15:15:43;;;;;;;19.38;3.70;;;;;;;12.31;100.00;99880.38;20769679;28;20065;-72
2023/03/12 15:25:44;;;;;;;14.30;3.30;;;;;;;12.32;100.00;99881.22;20769387;28;20064;-72
2023/03/12 15:35:45;;;;;;;17.88;3.28;;;;;;;12.22;100.00;99885.91;20766787;28;20057;-72
2023/03/12 15:45:47;;;;;;;18.42;3.70;;;;;;;12.15;100.00;99868.59;20761606;28;20140;-74
2023/03/12 15:55:48;;;;;;;15.07;3.85;;;;;;;12.02;100.00;99873.34;20758810;28;20091;-73
2023/03/12 16:05:50;;;;;;;18.52;3.78;;;;;;;11.96;100.00;99881.41;20774247;28;20076;-74
2023/03/12 16:15:51;;;;;;;19.65;4.10;;;;;;;11.97;100.00;99869.16;20795404;28;20287;-72
2023/03/12 16:25:53;;;;;;;20.30;3.53;;;;;;;11.95;100.00;99863.09;20756019;28;20087;-72
2023/03/12 16:35:54;;;;;;;19.40;3.80;;;;;;;11.78;100.00;99861.78;20770730;28;20841;-73
2023/03/12 16:45:56;;;;;;;17.63;3.70;;;;;;;11.78;100.00;99866.19;20774151;28;20049;-73
2023/03/12 16:55:58;;;;;;;22.77;3.50;;;;;;;11.63;100.00;99869.25;20769641;28;20057;-72
2023/03/12 17:06:00;;;;;;;18.25;3.53;;;;;;;11.46;100.00;99883.72;20768051;28;20104;-73
2023/03/12 17:16:01;;;;;;;21.27;3.53;;;;;;;11.11;100.00;99894.25;20748997;28;20466;-73
2023/03/12 17:26:03;;;;;;;14.77;3.28;;;;;;;10.78;100.00;99894.22;20758569;28;20050;-72
2023/03/12 17:36:04;;;;;;;23.63;4.03;;;;;;;10.65;100.00;99892.81;20771465;28;20049;-73
2023/03/12 17:46:06;;;;;;;22.38;3.85;;;;;;;10.62;100.00;99892.88;20776358;28;20485;-73
2023/03/12 17:56:08;;;;;;;18.50;3.45;;;;;;;10.27;100.00;99902.41;20762673;28;20084;-74
2023/03/12 18:06:09;;;;;;;17.17;4.13;;;;;;;10.14;100.00;99916.59;20759102;28;20050;-74
2023/03/12 18:16:11;;;;;;;19.52;3.67;;;;;;;10.09;100.00;99931.53;20763753;28;20057;-72
2023/03/12 18:26:12;;;;;;;12.73;3.80;;;;;;;10.11;100.00;99933.25;20767151;28;20049;-72
2023/03/12 18:36:13;;;;;;;21.50;4.22;;;;;;;9.82;100.00;99919.88;20775328;28;20049;-72
2023/03/12 18:46:14;;;;;;;15.98;4.60;;;;;;;9.65;100.00;99923.72;20788429;28;20065;-74
2023/03/12 18:56:16;;;;;;;16.30;4.35;;;;;;;9.56;100.00;99933.50;20773791;28;20053;-73
2023/03/12 19:06:17;;;;;;;18.98;4.78;;;;;;;9.56;100.00;99939.56;20756356;28;20115;-72
2023/03/12 19:16:20;;;;;;;17.27;3.78;;;;;;;9.52;100.00;99938.75;20769869;28;20097;-73
2023/03/12 19:26:22;;;;;;;19.30;5.30;;;;;;;9.52;100.00;99945.75;20754949;28;20053;-74
2023/03/12 19:36:23;;;;;;;25.42;7.00;;;;;;;9.59;100.00;99941.28;20768742;28;20058;-72
2023/03/12 19:46:24;;;;;;;20.33;5.35;;;;;;;9.52;100.00;99930.06;20780698;28;20054;-73
2023/03/12 19:56:26;;;;;;;18.40;3.67;;;;;;;9.65;100.00;99928.09;20784636;28;20473;-73
2023/03/12 20:06:27;;;;;;;21.48;4.32;;;;;;;9.59;100.00;99929.06;20776057;28;20060;-73
2023/03/12 20:16:29;;;;;;;17.45;4.60;;;;;;;9.58;100.00;99929.06;20779356;28;20057;-74
2023/03/12 20:26:30;;;;;;;18.50;3.75;;;;;;;9.49;100.00;99931.00;20777360;28;20052;-74
2023/03/12 20:36:31;;;;;;;19.15;4.43;;;;;;;9.43;100.00;99918.03;20774061;28;20045;-73
2023/03/12 20:46:33;;;;;;;17.20;4.30;;;;;;;9.46;100.00;99906.66;20780301;28;20084;-74
2023/03/12 20:56:34;;;;;;;19.52;3.92;;;;;;;9.40;100.00;99909.41;20770003;28;20080;-73
2023/03/12 21:06:35;;;;;;;16.65;4.43;;;;;;;9.54;100.00;99909.16;20769195;28;20473;-73
2023/03/12 21:16:37;;;;;;;17.48;4.38;;;;;;;9.35;100.00;99904.25;20776319;28;20061;-74
2023/03/12 21:26:38;;;;;;;22.15;5.35;;;;;;;9.28;100.00;99907.00;20773255;28;20196;-75
2023/03/12 21:36:39;;;;;;;17.77;3.72;;;;;;;9.38;100.00;99888.50;20769161;28;20069;-73
2023/03/12 21:46:41;;;;;;;13.88;3.00;;;;;;;9.45;100.00;99891.88;20766299;28;20050;-72
2023/03/12 21:56:42;;;;;;;14.77;3.72;;;;;;;9.34;100.00;99868.59;20767262;28;20056;-73
2023/03/12 22:06:43;;;;;;;23.50;6.15;;;;;;;9.26;100.00;99857.41;20773638;28;20119;-73
2023/03/12 22:16:45;;;;;;;14.20;3.35;;;;;;;9.13;100.00;99841.09;20774405;28;20077;-74
2023/03/12 22:26:46;;;;;;;12.57;3.28;;;;;;;9.10;100.00;99829.84;20762265;28;20058;-73
2023/03/12 22:36:47;;;;;;;14.63;4.00;;;;;;;9.22;100.00;99845.28;20760968;28;20124;-73
2023/03/12 22:46:48;;;;;;;10.90;2.80;;;;;;;9.20;100.00;99826.19;20767400;28;20081;-74
2023/03/12 22:56:50;;;;;;;14.15;3.35;;;;;;;9.15;100.00;99822.78;20768828;28;20108;-73
2023/03/12 23:06:51;;;;;;;20.05;3.22;;;;;;;9.21;100.00;99813.09;20764866;28;20064;-74
2023/03/12 23:17:01;;;;;;;15.70;3.05;;;;;;;9.34;100.00;99803.28;20761346;28;20088;-74
2023/03/12 23:27:03;;;;;;;19.00;3.97;;;;;;;9.45;100.00;99800.44;20787731;28;20053;-74
2023/03/12 23:37:04;;;;;;;12.95;3.15;;;;;;;9.57;100.00;99788.84;20803522;28;20075;-73
2023/03/12 23:47:05;;;;;;;12.93;3.42;;;;;;;9.64;100.00;99786.06;20771677;28;20072;-72
2023/03/12 23:57:06;;;;;;;14.95;3.33;;;;;;;9.74;100.00;99781.50;20759728;28;20073;-73
